»·PEaware :: UAL241 KLAX-KLAS

UAL241 :: KLAX-KLAS

FLIGHT INFORMATION

Flight Status: Arrived
Operator:
United Airlines
More flights by this operator :: More flights under this callsign
Pilot: Ryan H. (12491)
Aircraft: BOEING 737-800
(B738)
More flights by this aircraft type
Origin: KLAX Los Angeles Intl
United States
Destination: KLAS McCarran Intl
United States
More flights between these airports :: More routes between these airports
Route: KLAX ORCKA2 MISEN KEPEC6 KLAS
File this flight plan on PilotEdge
Remarks:
Altitude:
(Current/Filed)
270ft
Speed:
(Current/Filed)
450kts
Departed: 29-Nov-17 07:32 PM
Arrived: 29-Nov-17 08:14 PM
Distance/Time
Traveled:
205nm/0:42
Distance/Time
To Go:
Arrived

Flight Plot

Page will automatically refresh every two minutes.

Flight plan parsing failed; only flown route is shown


Map Options




Map Legend


Flown Route
Filed Route
Departure Airport
Arrival Airport
Navaid (VOR, NDB)
Fix

Horizontal Profiles

Position Reports

Time Latitude Longitude Heading Altitude Ground
Speed
29-Nov-17 19:25 33.939842 -118.403820 307 135ft 0kts
29-Nov-17 19:26 33.939842 -118.403820 307 135ft 0kts
29-Nov-17 19:27 33.939842 -118.403820 307 135ft 0kts
29-Nov-17 19:28 33.939842 -118.403820 307 135ft 0kts
29-Nov-17 19:29 33.939842 -118.403820 307 135ft 0kts
29-Nov-17 19:30 33.939842 -118.403820 307 135ft 0kts
29-Nov-17 19:31 33.939842 -118.403820 307 135ft 0kts
29-Nov-17 19:32 33.939694 -118.403594 307 135ft 2kts
29-Nov-17 19:33 33.939452 -118.403224 307 135ft 0kts
29-Nov-17 19:34 33.939452 -118.403224 307 135ft 0kts
29-Nov-17 19:35 33.939318 -118.403639 97 135ft 4kts
29-Nov-17 19:36 33.938884 -118.399083 83 135ft 20kts
29-Nov-17 19:37 33.939908 -118.388937 82 135ft 44kts
29-Nov-17 19:38 33.940703 -118.380825 100 135ft 0kts
29-Nov-17 19:39 33.939755 -118.380828 264 135ft 8kts
29-Nov-17 19:40 33.935680 -118.422207 262 2085ft 176kts
29-Nov-17 19:41 33.921380 -118.498936 248 3297ft 258kts
29-Nov-17 19:42 33.894350 -118.579993 248 5539ft 258kts
29-Nov-17 19:43 33.834236 -118.604099 147 9575ft 291kts
29-Nov-17 19:44 33.820562 -118.525738 57 12595ft 314kts
29-Nov-17 19:45 33.890686 -118.456078 25 14777ft 366kts
29-Nov-17 19:46 33.971944 -118.377328 56 17250ft 416kts
29-Nov-17 19:47 34.026468 -118.269951 50 19872ft 432kts
29-Nov-17 19:48 34.095978 -118.154001 52 22406ft 449kts
29-Nov-17 19:49 34.168520 -118.029463 53 24551ft 463kts
29-Nov-17 19:50 34.242975 -117.901129 53 25075ft 467kts
29-Nov-17 19:51 34.318014 -117.771622 53 25855ft 472kts
29-Nov-17 19:52 34.394310 -117.639717 53 26973ft 483kts
29-Nov-17 19:53 34.471214 -117.506452 53 27003ft 481kts
29-Nov-17 19:54 34.547668 -117.373792 53 27003ft 480kts
29-Nov-17 19:55 34.624063 -117.240960 53 27003ft 480kts
29-Nov-17 19:56 34.700603 -117.107630 53 26899ft 475kts
29-Nov-17 19:57 34.776747 -116.974818 53 26995ft 490kts
29-Nov-17 19:58 34.854800 -116.838274 53 27003ft 493kts
29-Nov-17 19:59 34.933251 -116.700908 53 27003ft 493kts
29-Nov-17 20:00 35.010039 -116.566107 53 24725ft 476kts
29-Nov-17 20:01 35.084778 -116.434813 53 24013ft 473kts
29-Nov-17 20:02 35.172463 -116.315036 42 24003ft 475kts
29-Nov-17 20:03 35.264694 -116.199379 43 24003ft 475kts
29-Nov-17 20:04 35.356171 -116.083764 43 22466ft 465kts
29-Nov-17 20:05 35.442691 -115.974421 43 20625ft 424kts
29-Nov-17 20:06 35.520344 -115.876232 42 18919ft 379kts
29-Nov-17 20:07 35.591304 -115.786389 42 16958ft 349kts
29-Nov-17 20:08 35.656080 -115.704283 42 14746ft 323kts
29-Nov-17 20:09 35.717551 -115.626306 42 13557ft 316kts
29-Nov-17 20:10 35.778384 -115.550401 42 12559ft 299kts
29-Nov-17 20:11 35.823354 -115.468160 62 10802ft 283kts
29-Nov-17 20:12 35.855101 -115.386975 61 9380ft 238kts
29-Nov-17 20:13 35.878509 -115.326852 61 7877ft 218kts
29-Nov-17 20:14 35.910518 -115.267446 29 6204ft 201kts
29-Nov-17 20:15 35.954792 -115.239396 24 5224ft 163kts
29-Nov-17 20:16 35.993805 -115.216986 24 4237ft 145kts
29-Nov-17 20:17 36.031347 -115.195543 24 3367ft 154kts
29-Nov-17 20:18 36.069639 -115.173679 24 2410ft 144kts
29-Nov-17 20:19 36.088905 -115.162081 111 2190ft 4kts
29-Nov-17 20:20 36.087905 -115.159480 114 2190ft 26kts
29-Nov-17 20:21 36.087482 -115.158371 131 2190ft 6kts
29-Nov-17 20:22 36.085249 -115.155888 44 2190ft 13kts
29-Nov-17 20:23 36.082534 -115.153618 64 2190ft 0kts
29-Nov-17 20:24 36.082534 -115.153618 64 2190ft 0kts

Navigation Log

Ident Type
Flight plan parsing failed, navigation log unavailable